Deerfield Beach, FL

4:21 AM EDT on May 26, 2015 (GMT -0400)
Fort Lauderdale-Hollywood International | | Change Station
CLOSE
Current Station
Airport
Location: Ft Lauderdale,
Elevation: 10 ft
Nearby Weather Stations

Elev 10 ft 26.07 °N, 80.15 °W | Updated 28 minutes ago

Partly Cloudy
Partly Cloudy
80 °F
Feels Like 84 °F
N
18
Wind Variable Wind from ESE
Gusts 24 mph

Today
High -- | Low -- °F
--% Chance of Precip.
Yesterday
High -- | Low -- °F
Precip. -- in
6:29 AM 8:05 PM
First Quarter, 56% visible
Pressure 30.11 in
Visibility 10.0 miles
Clouds Few 2100 ft
Scattered Clouds 2600 ft
Scattered Clouds 4800 ft
Mostly Cloudy 25000 ft
Heat Index 84 °F
Dew Point 73 °F
Humidity 79%
Rainfall 0.01 in
Snow Depth Not available.
UV 0 out of 12
Pollen 5.10 out of 12
Air Quality Not available.
Flu Activity Sporadic
METAR KFLL 260753Z 12016G21KT 10SM FEW021 SCT026 SCT048 BKN250 27/23 A3011 RMK AO2 RAB22E31 SLP195 VCSH W P0000 T02670228

More Conditions Fewer Conditions

Pressure 30.11 in
Visibility 10.0 miles
Clouds Few 2100 ft
Scattered Clouds 2600 ft
Scattered Clouds 4800 ft
Mostly Cloudy 25000 ft
Heat Index 84 °F
Dew Point 73 °F
Humidity 79%
Rainfall 0.01 in
Snow Depth Not available.
UV 0 out of 12
Pollen 5.10 out of 12
Air Quality Not available.
Flu Activity Sporadic
METAR KFLL 260753Z 12016G21KT 10SM FEW021 SCT026 SCT048 BKN250 27/23 A3011 RMK AO2 RAB22E31 SLP195 VCSH W P0000 T02670228

More Conditions Fewer Conditions

10-Day Weather Forecast

Almanac

Astronomy

May. 26, 2015 Rise Set
Actual Time
Civil Twilight
Nautical Twilight
Astronomical Twilight
Moon
Length of Visible Light
Length of Day
Tomorrow will be .
, % of the Moon is Illuminated

Today's Extremes

State Highs State Lows

Community

WunderPhotos

Upload Photos

1,824,302 photos uploaded!

WunderBlogs® & News

Nearby

Air Quality

  Air Quality AQ Index Pollutant
Not available.

Snow Depth

Station Depth Elevation

Earthquake Activity

City Distance Mag. Time & Date
Minimum magnitude displayed is 2.5.

Coastal Water Temperatures

Place Temperature

Stations

Nearby Weather Stations

Station Location Temp. Windchill Dew Point Humidity Wind Precip. Elev Updated Type